Time;durP1;ratioP1;P1;durP2;ratioP2;P2;SDS_P1;SDS_P2;PMS_P1;PMS_P2;Temp;Humidity;BMP_temperature;BMP_pressure;BME280_temperature;BME280_humidity;BME280_pressure;Samples;Min_cycle;Max_cycle;Signal;HPM_P1;HPM_P2
2022/12/23 00:02:18;;;;;;;26.88;14.13;;;6.20;99.90;;;;;;7406830;19;19919;-61
2022/12/23 00:04:50;;;;;;;30.80;14.13;;;6.20;99.90;;;;;;7409093;19;19915;-61
2022/12/23 00:07:19;;;;;;;32.30;14.38;;;6.30;99.90;;;;;;7403405;19;20270;-61
2022/12/23 00:09:48;;;;;;;30.20;13.75;;;6.20;99.90;;;;;;7406768;19;19919;-62
2022/12/23 00:15:07;;;;;;;31.00;15.80;;;6.20;99.90;;;;;;7398115;19;19929;-61
2022/12/23 00:17:36;;;;;;;;;;;6.30;99.90;;;;;;7392123;19;20489;-62
2022/12/23 00:20:08;;;;;;;;;;;6.30;99.90;;;;;;7411833;19;19991;-63
2022/12/23 00:25:19;;;;;;;32.35;14.43;;;6.40;99.90;;;;;;7411262;19;19926;-63
2022/12/23 00:28:00;;;;;;;25.55;12.35;;;6.20;99.90;;;;;;7404739;19;19943;-63
2022/12/23 00:30:30;;;;;;;27.33;12.68;;;7.30;99.90;;;;;;7399558;19;19926;-63
2022/12/23 00:32:59;;;;;;;30.48;13.15;;;6.20;99.90;;;;;;7396655;19;19930;-63
2022/12/23 00:35:32;;;;;;;30.23;13.02;;;6.70;99.90;;;;;;7407014;19;19993;-63
2022/12/23 00:38:01;;;;;;;29.08;13.90;;;6.20;99.90;;;;;;7409916;19;19931;-62
2022/12/23 00:43:11;;;;;;;30.02;13.70;;;6.20;99.90;;;;;;7409986;19;19982;-63
2022/12/23 00:45:41;;;;;;;28.42;13.57;;;6.40;99.90;;;;;;7405615;19;20324;-62
2022/12/23 00:50:55;;;;;;;30.92;13.70;;;6.20;99.90;;;;;;7410164;19;19931;-63
2022/12/23 00:53:24;;;;;;;32.13;13.45;;;6.20;99.90;;;;;;7404185;19;19911;-63
2022/12/23 00:55:53;;;;;;;30.67;13.52;;;6.20;99.90;;;;;;7409366;19;19947;-63
2022/12/23 00:58:24;;;;;;;29.00;13.25;;;6.10;99.90;;;;;;7408805;19;19926;-63
2022/12/23 01:06:22;;;;;;;33.05;14.43;;;6.10;99.90;;;;;;7406150;19;20007;-63
2022/12/23 01:08:51;;;;;;;34.08;14.10;;;6.10;99.90;;;;;;7406029;19;19915;-63
2022/12/23 01:11:20;;;;;;;33.55;14.32;;;6.20;99.90;;;;;;7404475;19;19915;-63
2022/12/23 01:13:49;;;;;;;33.40;15.13;;;6.30;99.90;;;;;;7406261;19;19917;-64
2022/12/23 01:16:18;;;;;;;31.35;14.77;;;6.40;99.90;;;;;;7404248;19;19933;-63
2022/12/23 01:18:51;;;;;;;30.77;13.80;;;6.20;99.90;;;;;;7409869;19;20353;-63
2022/12/23 01:21:22;;;;;;;31.73;14.23;;;6.20;99.90;;;;;;7405367;19;20267;-63
2022/12/23 01:23:54;;;;;;;30.10;13.38;;;6.10;99.90;;;;;;7408090;19;20301;-63
2022/12/23 01:26:23;;;;;;;33.05;14.52;;;6.10;99.90;;;;;;7407094;19;19922;-63
2022/12/23 01:28:55;;;;;;;34.13;14.55;;;6.20;99.90;;;;;;7404816;19;20374;-63
2022/12/23 01:31:26;;;;;;;32.20;13.73;;;6.20;99.90;;;;;;7397677;19;19926;-63
2022/12/23 01:33:55;;;;;;;29.95;14.25;;;6.10;99.90;;;;;;7406226;19;19918;-63
2022/12/23 01:36:27;;;;;;;30.40;14.95;;;6.20;99.90;;;;;;7404997;19;19921;-63
2022/12/23 01:38:57;;;;;;;32.92;15.27;;;6.10;99.90;;;;;;7405206;19;19923;-63
2022/12/23 01:44:40;;;;;;;33.85;14.95;;;6.10;99.90;;;;;;7398970;19;19923;-63
2022/12/23 01:47:12;;;;;;;35.72;15.00;;;6.10;99.90;;;;;;7406484;19;19926;-63
2022/12/23 01:49:42;;;;;;;36.58;15.60;;;6.10;99.90;;;;;;7404759;19;19918;-63
2022/12/23 01:52:14;;;;;;;33.05;14.80;;;6.10;99.90;;;;;;7405396;19;19915;-63
2022/12/23 01:54:44;;;;;;;33.55;15.32;;;6.20;99.90;;;;;;7405720;19;19922;-64
2022/12/23 01:57:14;;;;;;;31.38;14.15;;;6.00;99.90;;;;;;7404519;19;19921;-64
2022/12/23 02:05:10;;;;;;;33.85;15.52;;;6.10;99.90;;;;;;7406439;19;19926;-64
2022/12/23 02:10:28;;;;;;;36.70;15.80;;;6.20;99.90;;;;;;7405538;19;19993;-63
2022/12/23 02:13:03;;;;;;;33.88;15.13;;;6.10;99.90;;;;;;7402162;19;19918;-63
2022/12/23 02:18:43;;;;;;;34.67;15.48;;;6.10;99.90;;;;;;7407977;19;19938;-63
2022/12/23 02:21:29;;;;;;;35.05;15.10;;;6.10;99.90;;;;;;7405310;19;19922;-63
2022/12/23 02:24:29;;;;;;;39.42;16.35;;;6.00;99.90;;;;;;7403687;19;19906;-63
2022/12/23 02:27:17;;;;;;;29.02;14.45;;;6.10;99.90;;;;;;7402757;19;19915;-63
2022/12/23 02:30:09;;;;;;;32.63;14.80;;;6.10;99.90;;;;;;7397132;19;19985;-63
2022/12/23 02:32:59;;;;;;;34.78;15.07;;;6.10;99.90;;;;;;7406041;19;20365;-64
2022/12/23 02:35:30;;;;;;;;;;;6.00;99.90;;;;;;7407744;19;19922;-63
2022/12/23 02:38:07;;;;;;;35.50;14.85;;;6.10;99.90;;;;;;7403229;19;20320;-63
2022/12/23 02:40:42;;;;;;;37.95;16.52;;;6.10;99.90;;;;;;7401587;19;19974;-63
2022/12/23 02:43:19;;;;;;;32.65;14.52;;;6.00;99.90;;;;;;7402966;19;20333;-62
2022/12/23 02:45:56;;;;;;;34.28;14.75;;;6.10;99.90;;;;;;7397332;19;19914;-63
2022/12/23 02:48:33;;;;;;;35.60;15.38;;;6.40;99.90;;;;;;7400343;19;20310;-64
2022/12/23 02:51:03;;;;;;;38.30;16.50;;;6.10;99.90;;;;;;7405211;19;19918;-63
2022/12/23 02:53:37;;;;;;;38.47;15.73;;;6.00;99.90;;;;;;7404889;19;19942;-63
2022/12/23 02:56:08;;;;;;;34.53;14.18;;;6.00;99.90;;;;;;7403419;19;20336;-63
2022/12/23 02:58:43;;;;;;;35.35;14.48;;;6.10;99.90;;;;;;7402881;19;19929;-63
2022/12/23 03:01:14;;;;;;;31.70;14.82;;;5.90;99.90;;;;;;7405158;19;19923;-63
2022/12/23 03:03:49;;;;;;;35.17;15.25;;;7.10;99.90;;;;;;7401356;19;19985;-63
2022/12/23 03:06:23;;;;;;;33.38;14.73;;;5.90;99.90;;;;;;7408913;19;19927;-63
2022/12/23 03:08:56;;;;;;;36.28;15.15;;;6.00;99.90;;;;;;7411648;19;19937;-63
2022/12/23 03:11:38;;;;;;;33.03;14.52;;;6.00;99.90;;;;;;7409660;19;19965;-62
2022/12/23 03:14:26;;;;;;;33.70;14.82;;;5.90;99.90;;;;;;7411724;19;19922;-62
2022/12/23 03:17:05;;;;;;;31.92;14.73;;;5.90;99.90;;;;;;7412421;19;19919;-63
2022/12/23 03:19:48;;;;;;;33.35;15.10;;;6.00;99.90;;;;;;7403384;19;19923;-63
2022/12/23 03:22:26;;;;;;;37.45;16.42;;;5.90;99.90;;;;;;7410193;19;19960;-63
2022/12/23 03:25:07;;;;;;;35.47;16.05;;;5.90;99.90;;;;;;7411318;19;20008;-63
2022/12/23 03:27:44;;;;;;;35.97;14.65;;;5.90;99.90;;;;;;7408612;19;19914;-63
2022/12/23 03:30:16;;;;;;;37.40;16.60;;;5.90;99.90;;;;;;7409688;19;19931;-63
2022/12/23 03:32:49;;;;;;;41.63;15.27;;;5.90;99.90;;;;;;7411657;19;19926;-63
2022/12/23 03:35:25;;;;;;;36.90;15.45;;;6.00;99.90;;;;;;7410940;19;19947;-63
2022/12/23 03:37:57;;;;;;;37.50;16.00;;;6.00;99.90;;;;;;7407533;19;19926;-63
2022/12/23 03:40:29;;;;;;;39.70;14.50;;;6.00;99.90;;;;;;7405509;19;19922;-63
2022/12/23 03:43:04;;;;;;;38.08;15.82;;;5.80;99.90;;;;;;7410791;19;19934;-63
2022/12/23 03:45:37;;;;;;;36.05;15.60;;;5.90;99.90;;;;;;7407422;19;19933;-63
2022/12/23 03:48:11;;;;;;;35.92;14.75;;;6.00;99.90;;;;;;7409971;19;19919;-63
2022/12/23 03:50:49;;;;;;;38.95;14.93;;;5.90;99.90;;;;;;7409177;19;19939;-63
2022/12/23 03:53:23;;;;;;;37.17;15.20;;;5.90;99.90;;;;;;7408552;19;20316;-63
2022/12/23 03:55:57;;;;;;;32.97;14.32;;;5.80;99.90;;;;;;7407074;19;20266;-63
2022/12/23 03:58:38;;;;;;;35.08;15.48;;;5.90;99.90;;;;;;7408766;19;20332;-63
2022/12/23 04:01:16;;;;;;;37.92;14.77;;;5.90;99.90;;;;;;7407609;19;19923;-62
2022/12/23 04:03:53;;;;;;;39.80;15.98;;;5.90;99.90;;;;;;7407740;19;20337;-62
2022/12/23 04:06:28;;;;;;;38.00;15.77;;;5.90;99.90;;;;;;7407713;19;19914;-62
2022/12/23 04:08:58;;;;;;;37.83;15.93;;;4.90;99.90;;;;;;7405260;19;19922;-62
2022/12/23 04:11:27;;;;;;;42.45;16.35;;;5.90;99.90;;;;;;7409546;19;19919;-63
2022/12/23 04:13:56;;;;;;;40.15;16.60;;;5.90;99.90;;;;;;7399237;19;19944;-62
2022/12/23 04:16:26;;;;;;;43.28;16.02;;;5.90;99.90;;;;;;7411059;19;19933;-62
2022/12/23 04:18:55;;;;;;;38.67;15.32;;;5.90;99.90;;;;;;7407833;19;19915;-62
2022/12/23 04:21:27;;;;;;;39.60;16.20;;;5.90;99.90;;;;;;7410921;19;19915;-62
2022/12/23 04:23:56;;;;;;;41.03;15.32;;;5.90;99.90;;;;;;7408453;19;19922;-62
2022/12/23 04:26:25;;;;;;;38.95;15.77;;;6.70;99.90;;;;;;7411514;19;19918;-62
2022/12/23 04:28:54;;;;;;;42.28;15.68;;;5.80;99.90;;;;;;7401052;19;19918;-63
2022/12/23 04:31:23;;;;;;;41.22;16.30;;;5.90;99.90;;;;;;7408886;19;19926;-64
2022/12/23 04:33:53;;;;;;;38.60;15.25;;;5.80;99.90;;;;;;7407254;19;19911;-64
2022/12/23 04:36:22;;;;;;;41.90;15.73;;;6.00;99.90;;;;;;7406583;19;19970;-64
2022/12/23 04:38:54;;;;;;;41.13;15.30;;;5.80;99.90;;;;;;7406222;19;19927;-64
2022/12/23 04:41:28;;;;;;;42.47;15.10;;;5.90;99.90;;;;;;7406787;19;19928;-64
2022/12/23 04:43:57;;;;;;;40.92;15.68;;;5.90;99.90;;;;;;7406992;19;20354;-64
2022/12/23 04:46:26;;;;;;;37.13;14.48;;;5.90;99.90;;;;;;7403210;19;19922;-64
2022/12/23 04:48:59;;;;;;;43.40;15.48;;;5.90;99.90;;;;;;7407351;19;20280;-64
2022/12/23 04:51:28;;;;;;;41.50;15.35;;;5.80;99.90;;;;;;7407944;19;19921;-64
2022/12/23 04:53:59;;;;;;;37.92;15.15;;;6.60;99.90;;;;;;7407227;19;19918;-63
2022/12/23 04:56:29;;;;;;;40.63;14.73;;;5.90;99.90;;;;;;7407351;19;19935;-63
2022/12/23 04:59:00;;;;;;;37.58;14.23;;;5.90;99.90;;;;;;7408452;19;19919;-64
2022/12/23 05:01:30;;;;;;;30.88;13.43;;;5.90;99.90;;;;;;7405626;19;19918;-63
2022/12/23 05:03:59;;;;;;;37.67;13.90;;;5.70;99.90;;;;;;7402373;19;19939;-64
2022/12/23 05:06:32;;;;;;;40.63;15.38;;;5.80;99.90;;;;;;7408125;19;19927;-64
2022/12/23 05:09:03;;;;;;;43.75;15.15;;;5.80;99.90;;;;;;7406519;19;19923;-63
2022/12/23 05:11:32;;;;;;;37.47;15.20;;;5.90;99.90;;;;;;7408158;19;19923;-63
2022/12/23 05:14:01;;;;;;;42.35;16.15;;;5.80;99.90;;;;;;7407812;19;19947;-64
2022/12/23 05:16:30;;;;;;;41.45;14.95;;;5.80;99.90;;;;;;7407563;19;20834;-63
2022/12/23 05:18:59;;;;;;;36.28;14.88;;;5.80;99.90;;;;;;7402312;19;19974;-64
2022/12/23 05:21:28;;;;;;;36.38;13.68;;;5.80;99.90;;;;;;7405153;19;20332;-63
2022/12/23 05:23:58;;;;;;;36.33;14.25;;;5.80;99.90;;;;;;7404354;19;19918;-63
2022/12/23 05:26:29;;;;;;;38.88;13.65;;;5.90;99.90;;;;;;7405086;19;19939;-63
2022/12/23 05:28:58;;;;;;;33.67;14.07;;;5.80;99.90;;;;;;7407363;19;19933;-62
2022/12/23 05:31:28;;;;;;;36.45;13.43;;;5.80;99.90;;;;;;7405977;19;20175;-63
2022/12/23 05:33:58;;;;;;;34.03;13.90;;;5.90;99.90;;;;;;7406910;19;19911;-62
2022/12/23 05:36:27;;;;;;;35.83;12.63;;;5.80;99.90;;;;;;7399020;19;19922;-63
2022/12/23 05:38:56;;;;;;;32.05;13.50;;;5.70;99.90;;;;;;7402899;19;19923;-63
2022/12/23 05:41:25;;;;;;;35.03;13.45;;;6.50;99.90;;;;;;7406154;19;20266;-63
2022/12/23 05:44:06;;;;;;;33.97;13.02;;;5.80;99.90;;;;;;7406823;19;19923;-63
2022/12/23 05:46:35;;;;;;;33.47;12.68;;;5.70;99.90;;;;;;7405784;19;19932;-63
2022/12/23 05:49:07;;;;;;;31.42;13.27;;;5.80;99.90;;;;;;7407313;19;19919;-63
2022/12/23 05:51:36;;;;;;;29.00;12.55;;;5.80;99.90;;;;;;7406184;19;19922;-63
2022/12/23 05:54:05;;;;;;;34.08;12.20;;;5.70;99.90;;;;;;7407141;19;20412;-64
2022/12/23 05:56:37;;;;;;;37.47;12.30;;;5.70;99.90;;;;;;7405992;19;19939;-63
2022/12/23 05:59:08;;;;;;;31.92;13.07;;;5.60;99.90;;;;;;7407227;19;19919;-62
2022/12/23 06:01:37;;;;;;;34.60;12.52;;;5.70;99.90;;;;;;7406371;19;20262;-63
2022/12/23 06:04:07;;;;;;;31.10;11.32;;;5.80;99.90;;;;;;7405407;19;19914;-64
2022/12/23 06:06:36;;;;;;;33.13;12.10;;;5.70;99.90;;;;;;7403541;19;20368;-63
2022/12/23 06:09:05;;;;;;;30.70;11.90;;;5.70;99.90;;;;;;7404502;19;19922;-63
2022/12/23 06:11:34;;;;;;;30.70;11.70;;;5.70;99.90;;;;;;7403618;19;19919;-63
2022/12/23 06:14:06;;;;;;;31.30;12.27;;;5.60;99.90;;;;;;7407574;19;20276;-63
2022/12/23 06:16:39;;;;;;;34.22;11.73;;;5.60;99.90;;;;;;7405766;19;19923;-63
2022/12/23 06:19:08;;;;;;;26.38;10.68;;;5.60;99.90;;;;;;7395076;19;20278;-63
2022/12/23 06:21:39;;;;;;;29.67;10.82;;;5.80;99.90;;;;;;7406507;19;19923;-62
2022/12/23 06:24:09;;;;;;;29.02;11.60;;;5.70;99.90;;;;;;7403523;19;19982;-63
2022/12/23 06:26:45;;;;;;;30.33;11.23;;;5.70;99.90;;;;;;7407061;19;19939;-63
2022/12/23 06:29:14;;;;;;;31.48;11.70;;;5.70;99.90;;;;;;7403431;19;19943;-63
2022/12/23 06:31:46;;;;;;;27.58;11.10;;;5.80;99.90;;;;;;7402945;19;19978;-63
2022/12/23 06:34:15;;;;;;;28.80;10.73;;;5.70;99.90;;;;;;7398512;19;19926;-63
2022/12/23 06:36:45;;;;;;;26.15;11.07;;;6.10;99.90;;;;;;7402690;19;20333;-63
2022/12/23 06:39:14;;;;;;;28.55;10.07;;;5.60;99.90;;;;;;7405575;19;19914;-63
2022/12/23 06:41:43;;;;;;;25.40;10.30;;;5.70;99.90;;;;;;7404569;19;19933;-63
2022/12/23 06:44:12;;;;;;;32.75;11.73;;;5.80;99.90;;;;;;7403042;19;19921;-63
2022/12/23 06:46:41;;;;;;;25.10;9.82;;;6.00;99.90;;;;;;7405125;19;19922;-63
2022/12/23 06:49:13;;;;;;;31.73;11.18;;;5.60;99.90;;;;;;7403473;19;19918;-63
2022/12/23 06:51:42;;;;;;;23.38;9.75;;;5.50;99.90;;;;;;7403187;19;20399;-62
2022/12/23 06:54:13;;;;;;;28.35;10.38;;;5.60;99.90;;;;;;7388298;19;19919;-64
2022/12/23 06:56:42;;;;;;;26.95;10.20;;;5.50;99.90;;;;;;7403600;19;19933;-62
2022/12/23 06:59:11;;;;;;;26.63;10.75;;;5.50;99.90;;;;;;7407011;19;19923;-63
2022/12/23 07:01:40;;;;;;;25.30;9.98;;;6.30;99.90;;;;;;7403117;19;19919;-63
2022/12/23 07:04:09;;;;;;;30.10;11.30;;;5.40;99.90;;;;;;7395806;19;19943;-63
2022/12/23 07:06:41;;;;;;;24.73;9.43;;;5.30;99.90;;;;;;7405398;19;19919;-63
2022/12/23 07:09:10;;;;;;;25.75;11.10;;;5.40;99.90;;;;;;7400927;19;19974;-63
2022/12/23 07:11:39;;;;;;;31.75;11.65;;;5.40;99.90;;;;;;7404700;19;20274;-63
2022/12/23 07:14:08;;;;;;;31.42;10.18;;;5.80;99.90;;;;;;7402251;19;19930;-64
2022/12/23 07:16:37;;;;;;;25.80;9.55;;;5.70;99.90;;;;;;7401885;19;20305;-63
2022/12/23 07:19:06;;;;;;;25.95;9.82;;;5.30;99.90;;;;;;7401517;19;20254;-62
2022/12/23 07:21:37;;;;;;;49.78;11.13;;;5.40;99.90;;;;;;7393488;19;19922;-63
2022/12/23 07:24:10;;;;;;;30.10;10.52;;;5.40;99.90;;;;;;7300898;19;19989;-63
2022/12/23 07:26:42;;;;;;;28.23;9.43;;;5.30;99.90;;;;;;7403436;19;20359;-63
2022/12/23 07:29:11;;;;;;;28.27;9.52;;;5.30;99.90;;;;;;7400183;19;19926;-63
2022/12/23 07:31:40;;;;;;;30.35;10.75;;;5.30;99.90;;;;;;7322106;19;19919;-63
2022/12/23 07:34:11;;;;;;;24.50;10.10;;;5.50;99.90;;;;;;7400433;19;19935;-63
2022/12/23 07:36:42;;;;;;;35.50;8.95;;;5.50;99.90;;;;;;7402268;19;19939;-63
2022/12/23 07:39:13;;;;;;;26.48;10.10;;;5.40;99.90;;;;;;7402629;19;19932;-63
2022/12/23 07:41:42;;;;;;;27.63;10.35;;;5.30;99.90;;;;;;7395541;19;20265;-63
2022/12/23 07:44:12;;;;;;;27.85;10.02;;;5.20;99.90;;;;;;7401937;19;19915;-64
2022/12/23 07:46:41;;;;;;;20.80;9.30;;;5.50;99.90;;;;;;7404217;19;19961;-65
2022/12/23 07:49:11;;;;;;;25.95;10.75;;;5.30;99.90;;;;;;7406159;19;19915;-63
2022/12/23 07:51:39;;;;;;;26.65;9.85;;;5.30;99.90;;;;;;7407993;19;19938;-63
2022/12/23 07:54:09;;;;;;;25.63;10.63;;;5.30;99.90;;;;;;7407909;19;19915;-63
2022/12/23 07:56:40;;;;;;;28.50;10.52;;;5.30;99.90;;;;;;7407164;19;19925;-64
2022/12/23 07:59:09;;;;;;;28.52;11.40;;;5.30;99.90;;;;;;7402934;19;20549;-63
2022/12/23 08:01:52;;;;;;;28.38;10.57;;;5.30;99.90;;;;;;7409946;19;19922;-63
2022/12/23 08:04:21;;;;;;;24.77;9.65;;;5.30;99.90;;;;;;7406919;19;19920;-63
2022/12/23 08:06:51;;;;;;;24.98;10.60;;;5.40;99.90;;;;;;7408485;19;19923;-63
2022/12/23 08:09:20;;;;;;;26.80;9.57;;;5.70;99.90;;;;;;7406237;19;19919;-63
2022/12/23 08:11:51;;;;;;;28.15;9.45;;;5.40;99.90;;;;;;7408523;19;19911;-63
2022/12/23 08:14:22;;;;;;;28.80;11.25;;;5.20;99.90;;;;;;7407033;19;19939;-63
2022/12/23 08:16:51;;;;;;;24.77;10.05;;;5.30;99.90;;;;;;7408105;19;19937;-63
2022/12/23 08:19:19;;;;;;;25.95;9.93;;;5.40;99.90;;;;;;7410687;19;19923;-63
2022/12/23 08:21:56;;;;;;;25.27;10.18;;;5.40;99.90;;;;;;7411169;19;19927;-63
2022/12/23 08:24:25;;;;;;;26.70;10.32;;;5.60;99.90;;;;;;7409684;19;19915;-63
2022/12/23 08:26:57;;;;;;;28.45;11.35;;;5.40;99.90;;;;;;7407076;19;19954;-63
2022/12/23 08:29:28;;;;;;;22.08;9.30;;;5.40;99.90;;;;;;7410259;19;19918;-63
2022/12/23 08:31:57;;;;;;;30.58;10.05;;;5.50;99.90;;;;;;7405340;19;21683;-63
2022/12/23 08:34:26;;;;;;;25.48;9.55;;;5.30;99.90;;;;;;7404075;19;20537;-62
2022/12/23 08:36:56;;;;;;;34.50;9.93;;;5.40;99.90;;;;;;7409191;19;19922;-62
2022/12/23 08:39:25;;;;;;;25.63;9.65;;;5.40;99.90;;;;;;7405262;19;19926;-62
2022/12/23 08:41:57;;;;;;;24.90;9.55;;;5.30;99.90;;;;;;7407490;19;19914;-62
2022/12/23 08:44:26;;;;;;;20.92;8.25;;;5.30;99.90;;;;;;7406962;19;19918;-63
2022/12/23 08:46:56;;;;;;;25.00;9.75;;;5.40;99.90;;;;;;7407857;19;19939;-62
2022/12/23 08:49:25;;;;;;;28.88;9.70;;;5.40;99.90;;;;;;7407962;19;20246;-62
2022/12/23 08:51:54;;;;;;;27.77;9.63;;;6.30;99.90;;;;;;7398998;19;19915;-63
2022/12/23 08:54:23;;;;;;;26.40;10.35;;;5.50;99.90;;;;;;7406147;19;19948;-62
2022/12/23 08:56:53;;;;;;;29.98;9.10;;;5.40;99.90;;;;;;7410033;19;19967;-64
2022/12/23 08:59:24;;;;;;;30.20;9.52;;;5.40;99.90;;;;;;7406758;19;19923;-62
2022/12/23 09:01:55;;;;;;;35.05;9.70;;;5.50;99.90;;;;;;7405612;19;19914;-63
2022/12/23 09:04:24;;;;;;;27.42;9.35;;;5.40;99.90;;;;;;7409943;19;19922;-63
2022/12/23 09:06:56;;;;;;;40.40;10.43;;;5.40;99.90;;;;;;7406019;19;19922;-63
2022/12/23 09:09:25;;;;;;;34.83;8.75;;;5.30;99.90;;;;;;7400875;19;19914;-63
2022/12/23 09:11:54;;;;;;;30.73;9.82;;;5.30;99.90;;;;;;7403401;19;19934;-63
2022/12/23 09:14:26;;;;;;;27.83;9.18;;;5.40;99.90;;;;;;7406687;19;19923;-62
2022/12/23 09:16:55;;;;;;;28.13;10.95;;;5.40;99.90;;;;;;7408210;19;19918;-63
2022/12/23 09:19:27;;;;;;;24.98;9.48;;;5.40;99.90;;;;;;7405029;19;19922;-63
2022/12/23 09:21:57;;;;;;;27.67;10.55;;;5.50;99.90;;;;;;7404597;19;19923;-64
2022/12/23 09:24:26;;;;;;;61.75;11.18;;;5.50;99.90;;;;;;7408670;19;19921;-63
2022/12/23 09:26:55;;;;;;;25.40;10.25;;;5.40;99.90;;;;;;7405297;19;20286;-63
2022/12/23 09:29:27;;;;;;;50.42;9.75;;;5.40;99.90;;;;;;7407918;19;20412;-64
2022/12/23 09:31:56;;;;;;;52.17;12.73;;;5.50;99.90;;;;;;7406143;19;20019;-63
2022/12/23 09:34:25;;;;;;;34.63;10.90;;;5.50;99.90;;;;;;7404959;19;19922;-63
2022/12/23 09:36:54;;;;;;;32.85;8.95;;;5.60;99.90;;;;;;7406858;19;19923;-63
2022/12/23 09:39:24;;;;;;;24.83;7.50;;;5.60;99.90;;;;;;7394907;19;19947;-63
2022/12/23 09:42:07;;;;;;;42.50;8.43;;;5.60;99.90;;;;;;7390158;19;19923;-62
2022/12/23 09:45:04;;;;;;;31.70;7.28;;;5.70;99.90;;;;;;7399582;19;19923;-62
2022/12/23 09:47:34;;;;;;;65.05;9.20;;;5.70;99.90;;;;;;7405108;19;20336;-62
2022/12/23 09:50:12;;;;;;;69.20;10.13;;;5.70;99.90;;;;;;7404064;19;19923;-62
2022/12/23 09:52:48;;;;;;;47.95;8.07;;;5.60;99.90;;;;;;7406775;19;19938;-62
2022/12/23 09:55:19;;;;;;;41.47;7.20;;;5.50;99.90;;;;;;7408144;19;20483;-62
2022/12/23 09:57:55;;;;;;;39.53;7.82;;;6.20;99.90;;;;;;7407306;19;19947;-62
2022/12/23 10:00:27;;;;;;;91.93;8.95;;;5.60;99.90;;;;;;7406501;19;19919;-62
2022/12/23 10:03:12;;;;;;;58.08;10.25;;;5.50;99.90;;;;;;7397434;19;19926;-62
2022/12/23 10:05:50;;;;;;;24.52;6.68;;;5.50;99.90;;;;;;7398177;19;19922;-63
2022/12/23 10:08:30;;;;;;;37.13;7.07;;;5.60;99.90;;;;;;7384666;19;20362;-62
2022/12/23 10:11:02;;;;;;;27.98;6.72;;;5.70;99.90;;;;;;7400353;19;20315;-62
2022/12/23 10:13:36;;;;;;;18.75;7.13;;;5.60;99.90;;;;;;7403303;19;19973;-62
2022/12/23 10:16:14;;;;;;;33.03;7.85;;;5.70;99.90;;;;;;7403490;19;19926;-62
2022/12/23 10:18:54;;;;;;;38.00;7.82;;;5.70;99.90;;;;;;7404551;19;20261;-62
2022/12/23 10:21:32;;;;;;;23.52;7.15;;;6.00;99.90;;;;;;7403152;19;19921;-63
2022/12/23 10:24:06;;;;;;;61.35;8.07;;;5.70;99.90;;;;;;7397880;19;20237;-65
2022/12/23 10:26:43;;;;;;;31.70;7.22;;;5.70;99.90;;;;;;7402919;19;20309;-63
2022/12/23 10:29:18;;;;;;;52.53;7.85;;;5.90;99.90;;;;;;7406964;19;19927;-64
2022/12/23 10:32:02;;;;;;;163.48;14.00;;;5.80;99.90;;;;;;7397901;19;19950;-64
2022/12/23 10:34:40;;;;;;;47.20;7.47;;;5.80;99.90;;;;;;7406900;19;19926;-64
2022/12/23 10:37:16;;;;;;;42.35;8.35;;;5.80;99.90;;;;;;7405890;19;19926;-63
2022/12/23 10:39:54;;;;;;;76.93;8.82;;;5.80;99.90;;;;;;7402300;19;19918;-64
2022/12/23 10:42:32;;;;;;;17.23;6.97;;;5.80;99.90;;;;;;7403126;19;19924;-63
2022/12/23 10:45:32;;;;;;;34.05;7.78;;;5.90;99.90;;;;;;7404441;19;20017;-63
2022/12/23 10:48:16;;;;;;;25.63;7.47;;;5.90;99.90;;;;;;7404216;19;19918;-64
2022/12/23 10:51:00;;;;;;;27.17;7.38;;;5.90;99.90;;;;;;7402846;19;19923;-64
2022/12/23 10:53:37;;;;;;;18.83;7.63;;;6.20;99.90;;;;;;7402412;19;19918;-64
2022/12/23 10:56:08;;;;;;;23.15;7.95;;;6.00;99.90;;;;;;7402533;19;19955;-64
2022/12/23 10:58:40;;;;;;;19.67;7.15;;;6.10;99.90;;;;;;7403959;19;19919;-64
2022/12/23 11:01:10;;;;;;;18.38;7.05;;;6.00;99.90;;;;;;7395130;19;19927;-63
2022/12/23 11:03:45;;;;;;;20.17;7.22;;;6.10;99.90;;;;;;7403880;19;20274;-62
2022/12/23 11:06:14;;;;;;;15.45;6.68;;;6.10;99.90;;;;;;7403511;19;20337;-63
2022/12/23 11:08:44;;;;;;;21.25;7.85;;;6.00;99.90;;;;;;7404195;19;20258;-63
2022/12/23 11:11:17;;;;;;;16.77;6.90;;;6.00;99.90;;;;;;7399905;19;19915;-63
2022/12/23 11:13:49;;;;;;;17.38;7.05;;;6.10;99.90;;;;;;7401822;19;20302;-62
2022/12/23 11:16:25;;;;;;;21.38;8.20;;;6.10;99.90;;;;;;7396525;19;20021;-64
2022/12/23 11:19:01;;;;;;;20.17;8.23;;;6.10;99.90;;;;;;7400494;19;19929;-63
2022/12/23 11:21:31;;;;;;;19.90;8.15;;;6.20;99.90;;;;;;7404448;19;19922;-63
2022/12/23 11:24:16;;;;;;;22.27;8.88;;;6.10;99.90;;;;;;7408947;19;19930;-63
2022/12/23 11:26:46;;;;;;;22.10;8.20;;;6.20;99.90;;;;;;7410284;19;19977;-63
2022/12/23 11:29:26;;;;;;;23.20;8.57;;;7.40;99.90;;;;;;7408784;19;19990;-63
2022/12/23 11:31:55;;;;;;;23.55;9.38;;;6.10;99.90;;;;;;7412412;19;19926;-63
2022/12/23 11:34:29;;;;;;;22.23;8.80;;;6.20;99.90;;;;;;7400473;19;20348;-64
2022/12/23 11:37:01;;;;;;;18.90;8.23;;;6.30;99.90;;;;;;7407122;19;19914;-64
2022/12/23 11:39:32;;;;;;;20.75;9.00;;;6.40;99.90;;;;;;7410780;19;19933;-63
2022/12/23 11:42:09;;;;;;;21.90;8.68;;;6.40;99.90;;;;;;7410413;19;19922;-64
2022/12/23 11:44:43;;;;;;;22.15;9.00;;;6.60;99.90;;;;;;7409126;19;19918;-63
2022/12/23 11:47:28;;;;;;;23.05;9.55;;;6.30;99.90;;;;;;7406767;19;19946;-64
2022/12/23 11:50:01;;;;;;;23.02;9.43;;;6.30;99.90;;;;;;7405749;19;19922;-64
2022/12/23 11:52:32;;;;;;;24.15;8.90;;;6.40;99.90;;;;;;7395777;19;21744;-64
2022/12/23 11:55:03;;;;;;;21.95;9.38;;;6.60;99.90;;;;;;7406912;19;19919;-63
2022/12/23 11:57:40;;;;;;;24.90;9.43;;;6.40;99.90;;;;;;7410187;19;19982;-64
2022/12/23 12:00:22;;;;;;;20.80;9.10;;;6.40;99.90;;;;;;7411181;19;20356;-63
2022/12/23 12:02:54;;;;;;;22.15;8.63;;;6.50;99.90;;;;;;7407482;19;19923;-63
2022/12/23 12:05:31;;;;;;;23.77;9.40;;;6.50;99.90;;;;;;7408887;19;19931;-63
2022/12/23 12:08:03;;;;;;;24.13;9.98;;;6.50;99.90;;;;;;7401099;19;19926;-64
2022/12/23 12:10:34;;;;;;;21.08;9.27;;;6.60;99.90;;;;;;7407133;19;19978;-63
2022/12/23 12:13:07;;;;;;;24.23;9.48;;;6.50;99.90;;;;;;7410374;19;19914;-63
2022/12/23 12:15:43;;;;;;;19.45;9.63;;;6.70;99.90;;;;;;7409544;19;20023;-62
2022/12/23 12:18:17;;;;;;;22.20;8.90;;;6.50;99.90;;;;;;7404926;19;19936;-64
2022/12/23 12:20:52;;;;;;;19.83;8.23;;;6.60;99.90;;;;;;7408072;19;20266;-63
2022/12/23 12:23:27;;;;;;;22.90;9.15;;;6.50;99.90;;;;;;7408087;19;19924;-63
2022/12/23 12:26:01;;;;;;;20.85;8.10;;;7.30;99.90;;;;;;7403417;19;19935;-63
2022/12/23 12:28:35;;;;;;;23.52;9.15;;;6.60;99.90;;;;;;7408726;19;19922;-64
2022/12/23 12:31:07;;;;;;;21.45;8.75;;;6.60;99.90;;;;;;7405990;19;19923;-65
2022/12/23 12:33:42;;;;;;;22.10;8.25;;;6.70;99.90;;;;;;7406602;19;19918;-64
2022/12/23 12:36:20;;;;;;;20.77;9.00;;;6.60;99.90;;;;;;7404528;19;20250;-63
2022/12/23 12:38:59;;;;;;;23.95;9.48;;;6.60;99.90;;;;;;7404514;19;20356;-64
2022/12/23 12:41:34;;;;;;;19.27;9.05;;;6.60;99.90;;;;;;7404341;19;20495;-62
2022/12/23 12:44:35;;;;;;;23.42;8.50;;;6.60;99.90;;;;;;7406686;19;19919;-63
2022/12/23 12:47:10;;;;;;;21.25;9.05;;;6.60;99.90;;;;;;7407633;19;19939;-63
2022/12/23 12:49:46;;;;;;;22.55;8.65;;;6.60;99.90;;;;;;7409540;19;19914;-63
2022/12/23 12:52:21;;;;;;;20.02;9.25;;;6.60;99.90;;;;;;7403541;19;19982;-64
2022/12/23 12:54:55;;;;;;;22.38;8.63;;;6.90;99.90;;;;;;7401821;19;20002;-64
2022/12/23 12:57:26;;;;;;;19.40;8.63;;;6.60;99.90;;;;;;7399489;19;19930;-64
2022/12/23 13:00:01;;;;;;;25.60;9.73;;;6.50;99.90;;;;;;7406300;19;19918;-64
2022/12/23 13:02:42;;;;;;;22.13;9.73;;;6.60;99.90;;;;;;7366199;19;20075;-63
2022/12/23 13:05:36;;;;;;;26.75;11.00;;;6.60;99.90;;;;;;7366278;19;19915;-64
2022/12/23 13:08:25;;;;;;;26.13;11.35;;;6.50;99.90;;;;;;7405819;19;19906;-64
2022/12/23 13:10:57;;;;;;;;;;;6.50;99.90;;;;;;7410200;19;19981;-65
2022/12/23 13:13:41;;;;;;;25.35;10.65;;;6.60;99.90;;;;;;7397370;19;20333;-63
2022/12/23 13:16:21;;;;;;;22.98;9.82;;;6.60;99.90;;;;;;7405774;19;19915;-64
2022/12/23 13:18:59;;;;;;;21.33;8.93;;;6.70;99.90;;;;;;7405899;19;19939;-64
2022/12/23 13:21:35;;;;;;;24.45;9.77;;;6.60;99.90;;;;;;7405320;19;20344;-62
2022/12/23 13:24:18;;;;;;;23.23;9.70;;;6.70;99.90;;;;;;7406897;19;20247;-65
2022/12/23 13:26:58;;;;;;;21.95;9.10;;;4.90;99.90;;;;;;7405151;19;19918;-64
2022/12/23 13:29:55;;;;;;;20.90;9.30;;;6.60;99.90;;;;;;7406134;19;19915;-63
2022/12/23 13:32:38;;;;;;;20.05;8.75;;;6.40;99.90;;;;;;7398923;19;20308;-64
2022/12/23 13:35:22;;;;;;;18.30;8.20;;;6.50;99.90;;;;;;7390673;19;19926;-64
2022/12/23 13:37:58;;;;;;;20.65;9.13;;;6.60;99.90;;;;;;7408817;19;20108;-65
2022/12/23 13:40:39;;;;;;;20.35;9.02;;;6.60;99.90;;;;;;7403326;19;19922;-64
2022/12/23 13:43:15;;;;;;;27.50;9.77;;;6.50;99.90;;;;;;7405717;19;19923;-65
2022/12/23 13:45:46;;;;;;;23.08;9.65;;;6.60;99.90;;;;;;7408327;19;19919;-65